Data for 12/30/2006

Time Sea-Level Adjusted Pressure Absolute Pressure Temperature Relative Humidity Dew Point   
(mb) (inHg) (mb) (inHg) (C) (F) (%) (C) (F)
00:05 1024 30.24 853 25.19 -12.1 10.3 90 -13.4 7.8
00:10 1024 30.24 854 25.22 -11.9 10.7 91 -13.1 8.4
00:15 1024 30.24 854 25.22 -11.2 11.8 90 -12.6 9.3
00:20 1025 30.27 854 25.22 -11.1 12.1 90 -12.5 9.6
00:25 1025 30.27 854 25.22 -11.1 12.1 89 -12.6 9.3
00:30 1025 30.27 854 25.22 -11.2 11.8 87 -12.9 8.7
00:35 1025 30.27 854 25.22 -11.5 11.3 87 -13.2 8.2
00:40 1025 30.27 854 25.22 -11.7 10.9 85 -13.7 7.3
00:45 1025 30.27 854 25.22 -12.5 9.4 88 -14.2 6.5
00:50 1025 30.27 854 25.22 -13 8.7 93 -13.8 7.1
00:55 1025 30.27 854 25.22 -12.8 9 92 -13.9 7
01:00 1025 30.27 854 25.22 -12.7 9.1 92 -13.8 7.1
01:05 1025 30.27 854 25.22 -12.5 9.5 92 -13.5 7.8
01:10 1025 30.27 854 25.22 -12.3 10 90 -13.5 7.7
01:15 1025 30.27 854 25.22 -12.2 10 90 -13.6 7.5
01:20 1025 30.27 854 25.22 -12.3 9.9 87 -14 6.9
01:25 1025 30.27 854 25.22 -12.7 9.2 84 -14.8 5.4
01:30 1025 30.27 854 25.22 -13.4 8 85 -15.3 4.4
01:35 1025 30.27 854 25.22 -14.1 6.7 89 -15.5 4.1
01:40 1025 30.27 854 25.22 -14.4 6.1 96 -14.9 5.2
01:45 1025 30.27 854 25.22 -13.2 8.2 96 -13.7 7.3
01:50 1025 30.27 854 25.22 -12.6 9.3 95 -13.2 8.2
01:55 1025 30.27 854 25.22 -12.5 9.6 94 -13.3 8.1
02:00 1025 30.27 854 25.22 -12 10.4 94 -12.8 9
02:05 1025 30.27 854 25.22 -12 10.4 91 -13.2 8.2
02:10 1025 30.27 854 25.22 -13.1 8.4 89 -14.5 5.8
02:15 1024 30.24 854 25.22 -13.6 7.6 91 -14.7 5.5
02:20 1025 30.27 854 25.22 -14.2 6.4 93 -15.2 4.7
02:25 1025 30.27 854 25.22 -13.6 7.4 93 -14.6 5.8
02:30 1025 30.27 854 25.22 -13.2 8.2 95 -13.9 7
02:35 1025 30.27 854 25.22 -12.6 9.3 96 -13.2 8.3
02:40 1025 30.27 854 25.22 -11.9 10.5 94 -12.7 9.2
02:45 1025 30.27 854 25.22 -11.7 10.9 92 -12.7 9.1
02:50 1025 30.27 854 25.22 -12 10.5 91 -13.1 8.4
02:55 1025 30.27 854 25.22 -12.4 9.6 91 -13.7 7.4
03:00 1025 30.27 854 25.22 -12.9 8.7 93 -13.9 7.1
03:05 1025 30.27 854 25.22 -12.6 9.3 93 -13.6 7.6
03:10 1025 30.27 854 25.22 -12.4 9.7 91 -13.6 7.5
03:15 1025 30.27 854 25.22 -12.6 9.4 90 -13.8 7.1
03:20 1024 30.24 854 25.22 -12.9 8.8 90 -14.2 6.4
03:25 1024 30.24 854 25.22 -13.1 8.4 91 -14.2 6.4
03:30 1024 30.24 853 25.19 -12.8 9 92 -13.9 7
03:35 1024 30.24 853 25.19 -12.7 9.2 91 -13.9 7
03:40 1024 30.24 853 25.19 -12.9 8.7 89 -14.4 6
03:45 1024 30.24 853 25.19 -13.1 8.3 90 -14.4 6
03:50 1024 30.24 853 25.19 -13.1 8.4 90 -14.4 6.1
03:55 1024 30.24 853 25.19 -13.3 8.1 90 -14.6 5.7
04:00 1023 30.21 853 25.19 -13.2 8.2 92 -14.3 6.2
04:05 1024 30.24 853 25.19 -12.8 9.1 92 -13.8 7.1
04:10 1024 30.24 853 25.19 -12.3 9.8 91 -13.4 7.8
04:15 1024 30.24 853 25.19 -12.1 10.2 90 -13.4 7.9
04:20 1024 30.24 853 25.19 -12 10.5 90 -13.3 8.1
04:25 1024 30.24 853 25.19 -11.8 10.7 90 -13.2 8.3
04:30 1024 30.24 853 25.19 -11.7 10.9 89 -13.1 8.4
04:35 1024 30.24 853 25.19 -11.7 10.9 89 -13.1 8.4
04:40 1024 30.24 853 25.19 -11.8 10.8 89 -13.2 8.3
04:45 1024 30.24 853 25.19 -11.8 10.8 89 -13.3 8.1
04:50 1024 30.24 853 25.19 -11.8 10.8 88 -13.3 8
04:55 1024 30.24 854 25.22 -12 10.4 86 -13.9 7
05:00 1024 30.24 854 25.22 -12.6 9.3 87 -14.3 6.2
05:05 1025 30.27 854 25.22 -12.9 8.8 88 -14.4 6
05:10 1025 30.27 854 25.22 -12.7 9.1 88 -14.3 6.3
05:15 1025 30.27 854 25.22 -12.7 9.1 89 -14.1 6.5
05:20 1025 30.27 854 25.22 -12.7 9.2 88 -14.2 6.4
05:25 1025 30.27 854 25.22 -12.7 9.2 89 -14.1 6.6
05:30 1025 30.27 854 25.22 -12.6 9.3 90 -14 6.8
05:35 1025 30.27 855 25.25 -12.6 9.3 88 -14.2 6.5
05:40 1026 30.3 855 25.25 -12.9 8.7 86 -14.8 5.4
05:45 1026 30.3 855 25.25 -13.6 7.4 87 -15.4 4.3
05:50 1025 30.27 855 25.25 -14.4 6.2 88 -15.9 3.4
05:55 1025 30.27 855 25.25 -14.4 6.2 92 -15.4 4.3
06:00 1025 30.27 855 25.25 -14.1 6.6 90 -15.4 4.3
06:05 1025 30.27 854 25.22 -14.5 6 90 -15.7 3.7
06:10 1025 30.27 854 25.22 -14.7 5.5 89 -16.1 3
06:15 1025 30.27 854 25.22 -15 5.1 89 -16.4 2.5
06:20 1025 30.27 854 25.22 -15.1 4.7 89 -16.6 2.2
06:25 1025 30.27 854 25.22 -14.8 5.3 93 -15.7 3.7
06:30 1025 30.27 854 25.22 -14.2 6.4 91 -15.5 4.2
06:35 1025 30.27 855 25.25 -14.5 5.9 91 -15.7 3.7
06:40 1026 30.3 855 25.25 -14.6 5.7 91 -15.7 3.7
06:45 1026 30.3 855 25.25 -14.4 6.1 94 -15.2 4.6
06:50 1026 30.3 855 25.25 -14 6.9 95 -14.6 5.7
06:55 1026 30.3 855 25.25 -13.4 7.9 95 -14 6.7
07:00 1026 30.3 855 25.25 -13.1 8.4 94 -13.9 7
07:05 1026 30.3 855 25.25 -12.8 8.9 93 -13.7 7.4
07:10 1026 30.3 855 25.25 -12.7 9.2 91 -13.8 7.1
07:15 1026 30.3 855 25.25 -13.2 8.3 90 -14.4 6
07:20 1026 30.3 855 25.25 -13.3 8.1 91 -14.4 6
07:25 1026 30.3 855 25.25 -13.2 8.3 91 -14.4 6.2
07:30 1026 30.3 855 25.25 -13.1 8.4 90 -14.4 6.1
07:35 1026 30.3 855 25.25 -12.9 8.7 90 -14.2 6.4
07:40 1026 30.3 855 25.25 -12.7 9.2 90 -14 6.9
07:45 1026 30.3 855 25.25 -12.4 9.7 90 -13.8 7.2
07:50 1026 30.3 855 25.25 -12.2 10.1 89 -13.6 7.5
07:55 1026 30.3 855 25.25 -12.1 10.2 89 -13.6 7.6
08:00 1026 30.3 855 25.25 -12 10.3 89 -13.5 7.7
08:05 1026 30.3 855 25.25 -11.9 10.5 89 -13.4 7.9
08:10 1026 30.3 855 25.25 -11.8 10.7 89 -13.3 8
08:15 1026 30.3 855 25.25 -11.8 10.8 88 -13.3 8
08:20 1026 30.3 855 25.25 -11.8 10.7 88 -13.4 7.9
08:25 1026 30.3 855 25.25 -11.8 10.9 88 -13.4 7.9
08:30 1026 30.3 855 25.25 -11.4 11.5 86 -13.2 8.2
08:35 1026 30.3 855 25.25 -11.2 11.8 86 -13.2 8.3
08:40 1026 30.3 855 25.25 -11.1 12.1 85 -13.1 8.4
08:45 1026 30.3 855 25.25 -11.7 10.9 82 -14.2 6.5
08:50 1026 30.3 855 25.25 -12.2 10 87 -13.9 7
08:55 1026 30.3 855 25.25 -11.9 10.7 88 -13.5 7.7
09:00 1026 30.3 855 25.25 -11.4 11.4 86 -13.3 8.1
09:05 1026 30.3 855 25.25 -10.9 12.4 85 -12.9 8.8
09:10 1026 30.3 855 25.25 -11.2 11.8 84 -13.5 7.8
09:15 1026 30.3 855 25.25 -11.5 11.3 86 -13.4 7.8
09:20 1026 30.3 855 25.25 -11.5 11.3 86 -13.4 7.9
09:25 1026 30.3 855 25.25 -11.2 11.9 86 -13.1 8.3
09:30 1026 30.3 855 25.25 -10.1 13.7 82 -12.7 9.1
09:35 1026 30.3 855 25.25 -9.6 14.6 81 -12.3 9.9
09:40 1026 30.3 855 25.25 -8.9 16 78 -12 10.4
09:45 1026 30.3 855 25.25 -8.5 16.7 75 -12.1 10.2
09:50 1026 30.3 855 25.25 -8.3 17.2 74 -12 10.3
09:55 1026 30.3 855 25.25 -7.6 18.2 72 -11.8 10.7
10:00 1026 30.3 855 25.25 -7.1 19.3 72 -11.2 11.8
10:05 1026 30.3 855 25.25 -6.6 20.2 72 -10.8 12.6
10:10 1026 30.3 855 25.25 -6.3 20.6 72 -10.6 12.9
10:15 1026 30.3 855 25.25 -6.1 21 70 -10.8 12.6
10:20 1026 30.3 855 25.25 -6.7 19.9 72 -10.9 12.4
10:25 1026 30.3 855 25.25 -6.8 19.8 73 -10.9 12.4
10:30 1026 30.3 855 25.25 -6.7 20 73 -10.8 12.6
10:35 1026 30.3 855 25.25 -7.2 19.1 75 -10.8 12.5
10:40 1026 30.3 855 25.25 -7.3 18.9 75 -11.1 12.1
10:45 1026 30.3 855 25.25 -6.7 20 74 -10.6 12.9
10:50 1025 30.27 855 25.25 -6.4 20.5 72 -10.6 12.9
10:55 1025 30.27 855 25.25 -6.4 20.5 73 -10.6 13
11:00 1026 30.3 855 25.25 -6.9 19.7 75 -10.6 12.9
11:05 1026 30.3 855 25.25 -6.8 19.8 75 -10.5 13.1
11:10 1026 30.3 855 25.25 -6.4 20.4 73 -10.6 13
11:15 1026 30.3 855 25.25 -6.4 20.4 72 -10.6 12.9
11:20 1026 30.3 855 25.25 -6.4 20.5 72 -10.6 12.9
11:25 1026 30.3 855 25.25 -6.1 21.1 71 -10.5 13.1
11:30 1026 30.3 855 25.25 -6.5 20.4 73 -10.6 13
11:35 1025 30.27 855 25.25 -6.8 19.8 72 -11 12.2
11:40 1025 30.27 855 25.25 -7.7 18.2 77 -11.1 12
11:45 1025 30.27 855 25.25 -9.1 15.6 81 -11.8 10.8
11:50 1025 30.27 855 25.25 -8.8 16.2 80 -11.6 11.2
11:55 1025 30.27 855 25.25 -7.4 18.7 74 -11.2 11.8
12:00 1025 30.27 855 25.25 -6.6 20.1 71 -11.1 12
12:05 1025 30.27 854 25.22 -6.5 20.3 73 -10.6 12.8
12:10 1025 30.27 855 25.25 -6.3 20.6 72 -10.7 12.8
12:15 1026 30.3 855 25.25 -5.8 21.6 69 -10.5 13
12:20 1026 30.3 855 25.25 -5.4 22.3 68 -10.5 13.1
12:25 1026 30.3 855 25.25 -5.3 22.5 68 -10.2 13.6
12:30 1026 30.3 855 25.25 -5.3 22.5 68 -10.3 13.4
12:35 1026 30.3 855 25.25 -6.1 21 71 -10.6 12.9
12:40 1026 30.3 855 25.25 -7.1 19.2 75 -10.9 12.4
12:45 1025 30.27 855 25.25 -7.7 18.2 77 -11 12.2
12:50 1025 30.27 855 25.25 -7.4 18.6 75 -11.1 12.1
12:55 1025 30.27 854 25.22 -7 19.3 75 -10.7 12.7
13:00 1025 30.27 854 25.22 -6.8 19.7 76 -10.5 13.2
13:05 1025 30.27 854 25.22 -6.9 19.5 77 -10.3 13.4
13:10 1025 30.27 854 25.22 -6.4 20.5 73 -10.4 13.2
13:15 1025 30.27 854 25.22 -6.4 20.5 74 -10.2 13.6
13:20 1025 30.27 854 25.22 -5.8 21.6 72 -10 14
13:25 1025 30.27 854 25.22 -5.1 22.8 68 -10.2 13.6
13:30 1025 30.27 854 25.22 -4.7 23.6 65 -10.2 13.6
13:35 1025 30.27 854 25.22 -5 23 68 -10 14
13:40 1025 30.27 854 25.22 -5.4 22.2 70 -10.1 13.8
13:45 1025 30.27 854 25.22 -5.7 21.7 71 -10.2 13.6
13:50 1025 30.27 854 25.22 -5.9 21.4 71 -10.3 13.4
13:55 1025 30.27 854 25.22 -6.1 21 71 -10.5 13
14:00 1025 30.27 854 25.22 -6 21.2 71 -10.4 13.2
14:05 1025 30.27 854 25.22 -6 21.2 70 -10.6 12.8
14:10 1025 30.27 854 25.22 -5.7 21.7 69 -10.5 13
14:15 1025 30.27 854 25.22 -5.4 22.3 67 -10.6 12.9
14:20 1025 30.27 854 25.22 -4.9 23.1 66 -10.3 13.5
14:25 1025 30.27 854 25.22 -4.7 23.5 68 -9.8 14.4
14:30 1025 30.27 854 25.22 -5.2 22.7 67 -10.4 13.3
14:35 1025 30.27 854 25.22 -5.6 21.9 70 -10.3 13.5
14:40 1025 30.27 854 25.22 -5.6 21.8 71 -10.1 13.8
14:45 1025 30.27 854 25.22 -5.4 22.3 70 -10.1 13.8
14:50 1025 30.27 854 25.22 -5.2 22.6 70 -9.9 14.2
14:55 1025 30.27 854 25.22 -5.4 22.2 75 -9.2 15.5
15:00 1025 30.27 854 25.22 -5.8 21.6 76 -9.3 15.3
15:05 1025 30.27 854 25.22 -6 21.2 77 -9.4 15.1
15:10 1025 30.27 854 25.22 -6.1 21 76 -9.6 14.7
15:15 1025 30.27 854 25.22 -6.2 20.8 77 -9.6 14.7
15:20 1025 30.27 854 25.22 -6 21.2 75 -9.8 14.3
15:25 1025 30.27 854 25.22 -6.1 21.1 75 -9.8 14.4
15:30 1025 30.27 854 25.22 -6.1 20.9 76 -9.7 14.5
15:35 1025 30.27 854 25.22 -6.2 20.9 76 -9.7 14.6
15:40 1025 30.27 854 25.22 -6.2 20.8 75 -9.9 14.1
15:45 1025 30.27 854 25.22 -6.4 20.6 76 -10 14
15:50 1025 30.27 854 25.22 -6.5 20.3 76 -10 14
15:55 1025 30.27 854 25.22 -6.4 20.5 76 -10.1 13.9
16:00 1025 30.27 855 25.25 -6.2 20.9 74 -10.1 13.8
16:05 1025 30.27 855 25.25 -6.1 21 73 -10.1 13.8
16:10 1025 30.27 855 25.25 -5.8 21.5 72 -10.2 13.6
16:15 1025 30.27 855 25.25 -5.2 22.6 68 -10.2 13.6
16:20 1025 30.27 855 25.25 -4.8 23.4 68 -9.9 14.2
16:25 1025 30.27 855 25.25 -5.2 22.7 71 -9.6 14.7
16:30 1026 30.3 855 25.25 -5 23 66 -10.5 13.1
16:35 1026 30.3 855 25.25 -4.8 23.3 66 -10.2 13.7
16:40 1026 30.3 855 25.25 -5.1 22.9 69 -9.9 14.2
16:45 1026 30.3 855 25.25 -5.6 22 73 -9.7 14.6
16:50 1026 30.3 855 25.25 -6 21.2 74 -9.9 14.1
16:55 1026 30.3 855 25.25 -6.2 20.8 74 -10.1 13.8
17:00 1026 30.3 855 25.25 -6.6 20.2 76 -10.1 13.9
17:05 1026 30.3 855 25.25 -6.9 19.7 77 -10.2 13.6
17:10 1026 30.3 855 25.25 -7.1 19.3 79 -10.2 13.7
17:15 1026 30.3 855 25.25 -7.1 19.2 79 -10.1 13.7
17:20 1026 30.3 855 25.25 -7.4 18.8 80 -10.3 13.5
17:25 1026 30.3 855 25.25 -7.7 18.2 81 -10.4 13.3
17:30 1026 30.3 855 25.25 -7.9 17.8 80 -10.8 12.6
17:35 1026 30.3 855 25.25 -8.3 17.1 82 -10.9 12.5
17:40 1026 30.3 855 25.25 -8.2 17.3 80 -11.1 12.1
17:45 1026 30.3 855 25.25 -8 17.6 81 -10.7 12.7
17:50 1025 30.27 855 25.25 -8.1 17.4 82 -10.6 12.9
17:55 1025 30.27 855 25.25 -8.3 17.1 82 -10.9 12.4
18:00 1025 30.27 855 25.25 -8.3 17.1 82 -10.8 12.5
18:05 1025 30.27 855 25.25 -8.3 17 82 -10.9 12.5
18:10 1025 30.27 855 25.25 -8.5 16.7 83 -10.9 12.4
18:15 1025 30.27 854 25.22 -8.3 17.2 82 -10.7 12.7
18:20 1025 30.27 855 25.25 -8.5 16.7 84 -10.7 12.7
18:25 1025 30.27 855 25.25 -8.3 17 84 -10.6 12.9
18:30 1026 30.3 855 25.25 -7.9 17.8 82 -10.4 13.3
18:35 1026 30.3 855 25.25 -7.8 17.9 82 -10.4 13.2
18:40 1026 30.3 855 25.25 -7.7 18.1 81 -10.4 13.2
18:45 1026 30.3 855 25.25 -7.6 18.4 80 -10.4 13.2
18:50 1026 30.3 855 25.25 -7.6 18.3 80 -10.5 13.1
18:55 1026 30.3 855 25.25 -7.8 18 81 -10.6 13
19:00 1026 30.3 855 25.25 -8 17.6 82 -10.5 13.1
19:05 1026 30.3 855 25.25 -8.2 17.2 83 -10.6 12.9
19:10 1025 30.27 855 25.25 -8.3 17 83 -10.8 12.6
19:15 1025 30.27 855 25.25 -8.4 16.9 83 -10.8 12.6
19:20 1025 30.27 855 25.25 -8.5 16.6 84 -10.8 12.5
19:25 1025 30.27 855 25.25 -8.4 16.8 83 -10.8 12.6
19:30 1025 30.27 855 25.25 -8.5 16.8 83 -10.9 12.4
19:35 1025 30.27 855 25.25 -8.6 16.6 84 -10.9 12.4
19:40 1025 30.27 855 25.25 -8.5 16.7 84 -10.8 12.6
19:45 1025 30.27 855 25.25 -8.4 16.8 83 -10.8 12.5
19:50 1025 30.27 855 25.25 -8.5 16.8 83 -10.9 12.5
19:55 1025 30.27 855 25.25 -8.6 16.5 84 -10.9 12.3
20:00 1025 30.27 855 25.25 -9 15.8 84 -11.2 11.9
20:05 1026 30.3 855 25.25 -9.2 15.5 84 -11.4 11.5
20:10 1026 30.3 855 25.25 -9.3 15.2 85 -11.4 11.4
20:15 1026 30.3 855 25.25 -9.8 14.4 86 -11.7 10.9
20:20 1026 30.3 855 25.25 -9.8 14.3 86 -11.7 10.9
20:25 1026 30.3 855 25.25 -9.5 14.9 85 -11.5 11.2
20:30 1026 30.3 855 25.25 -9.2 15.5 84 -11.4 11.5
20:35 1026 30.3 855 25.25 -8.9 15.9 84 -11.2 11.8
20:40 1026 30.3 855 25.25 -8.8 16.2 82 -11.3 11.7
20:45 1026 30.3 855 25.25 -8.8 16.2 82 -11.3 11.6
20:50 1026 30.3 855 25.25 -9 15.7 83 -11.4 11.4
20:55 1026 30.3 855 25.25 -9.4 15.1 84 -11.7 11
21:00 1026 30.3 855 25.25 -9.4 15 85 -11.5 11.2
21:05 1026 30.3 855 25.25 -9.2 15.5 85 -11.3 11.6
21:10 1026 30.3 855 25.25 -9.2 15.4 84 -11.4 11.4
21:15 1025 30.27 855 25.25 -9.3 15.2 84 -11.6 11.2
21:20 1025 30.27 855 25.25 -9.5 14.9 84 -11.7 11
21:25 1025 30.27 855 25.25 -9.6 14.6 86 -11.5 11.2
21:30 1025 30.27 854 25.22 -9.5 15 85 -11.5 11.3
21:35 1025 30.27 854 25.22 -9.4 15.1 85 -11.5 11.2
21:40 1025 30.27 854 25.22 -9.6 14.8 84 -11.7 10.9
21:45 1025 30.27 854 25.22 -9.7 14.5 86 -11.7 11
21:50 1025 30.27 854 25.22 -9.9 14.1 86 -11.9 10.6
21:55 1025 30.27 854 25.22 -10.1 13.8 85 -12.2 10
22:00 1025 30.27 854 25.22 -10.2 13.6 86 -12.1 10.2
22:05 1025 30.27 855 25.25 -10.2 13.7 87 -12 10.4
22:10 1025 30.27 855 25.25 -10 14.1 87 -11.8 10.8
22:15 1025 30.27 855 25.25 -9.7 14.6 85 -11.7 11
22:20 1025 30.27 855 25.25 -9.5 14.8 86 -11.5 11.3
22:25 1025 30.27 855 25.25 -9.4 15.1 85 -11.5 11.4
22:30 1025 30.27 855 25.25 -10 14 81 -12.7 9.2
22:35 1025 30.27 855 25.25 -11.3 11.8 93 -12.2 10
22:40 1025 30.27 855 25.25 -10.1 13.9 91 -11.3 11.6
22:45 1025 30.27 855 25.25 -9.1 15.7 86 -11 12.3
22:50 1025 30.27 855 25.25 -8.6 16.5 83 -11.1 12.1
22:55 1025 30.27 855 25.25 -8.9 15.9 86 -10.8 12.5
23:00 1025 30.27 855 25.25 -9.3 15.3 86 -11.2 11.8
23:05 1025 30.27 855 25.25 -9.7 14.5 84 -11.9 10.5
23:10 1025 30.27 855 25.25 -10.1 13.8 85 -12.1 10.2
23:15 1025 30.27 855 25.25 -10.2 13.7 85 -12.3 9.9
23:20 1026 30.3 855 25.25 -10.3 13.4 85 -12.4 9.6
23:25 1026 30.3 855 25.25 -10.3 13.4 85 -12.4 9.7
23:30 1026 30.3 855 25.25 -10 13.9 86 -12 10.5
23:35 1026 30.3 855 25.25 -9.6 14.8 84 -11.8 10.7
23:40 1026 30.3 855 25.25 -9.5 15 81 -12.1 10.2
23:45 1026 30.3 855 25.25 -9.6 14.7 85 -11.7 10.9
23:50 1026 30.3 855 25.25 -9.9 14.2 82 -12.3 9.8
23:55 1026 30.3 855 25.25 -10.2 13.6 83 -12.6 9.3
24:00 1026 30.3 855 25.25 -10.7 12.8 88 -12.3 9.8